createdAt,value
2018-11-05T00:01:07.466Z,61.70
2018-11-05T00:03:37.082Z,61.20
2018-11-05T00:06:07.057Z,61.30
2018-11-05T00:08:37.475Z,61.50
2018-11-05T00:11:07.228Z,61.70
2018-11-05T00:13:38.826Z,61.50
2018-11-05T00:16:08.900Z,61.70
2018-11-05T00:18:39.660Z,61.30
2018-11-05T00:21:09.499Z,62.20
2018-11-05T00:23:39.327Z,61.90
2018-11-05T00:26:09.373Z,61.90
2018-11-05T00:28:39.109Z,61.90
2018-11-05T00:31:09.029Z,61.90
2018-11-05T00:33:39.071Z,62.10
2018-11-05T00:36:33.413Z,62.10
2018-11-05T00:39:03.991Z,61.90
2018-11-05T00:41:33.505Z,63.00
2018-11-05T00:44:03.235Z,63.90
2018-11-05T00:46:33.651Z,63.50
2018-11-05T00:51:40.242Z,63.30
2018-11-05T00:54:09.803Z,63.50
2018-11-05T00:56:39.703Z,63.50
2018-11-05T00:59:09.242Z,63.50
2018-11-05T01:01:39.026Z,63.50
2018-11-05T01:04:08.727Z,63.70
2018-11-05T01:06:38.294Z,64.20
2018-11-05T01:09:08.365Z,63.90
2018-11-05T01:11:38.588Z,64.60
2018-11-05T01:14:09.089Z,64.60
2018-11-05T01:16:38.781Z,65.10
2018-11-05T01:19:08.458Z,65.30
2018-11-05T01:21:38.242Z,65.50
2018-11-05T01:24:08.012Z,66.00
2018-11-05T01:26:37.739Z,66.00
2018-11-05T01:29:07.513Z,65.30
2018-11-05T01:31:37.030Z,64.90
2018-11-05T01:34:06.537Z,65.10
2018-11-05T01:36:36.081Z,65.10
2018-11-05T01:39:07.750Z,65.50
2018-11-05T01:41:37.369Z,65.50
2018-11-05T01:44:07.084Z,65.30
2018-11-05T01:46:36.999Z,64.90
2018-11-05T01:49:06.601Z,64.60
2018-11-05T01:55:24.381Z,64.20
2018-11-05T01:57:57.951Z,64.40
2018-11-05T02:00:32.461Z,64.40
2018-11-05T02:03:05.514Z,63.90
2018-11-05T02:05:35.229Z,63.10
2018-11-05T02:08:04.732Z,63.30
2018-11-05T02:10:34.340Z,62.40
2018-11-05T02:13:03.730Z,62.80
2018-11-05T02:15:33.456Z,62.20
2018-11-05T02:18:03.170Z,62.20
2018-11-05T02:20:32.801Z,61.90
2018-11-05T02:23:02.481Z,62.10
2018-11-05T02:25:32.133Z,61.70
2018-11-05T02:28:03.065Z,62.60
2018-11-05T02:30:32.448Z,62.20
2018-11-05T02:33:01.709Z,62.10
2018-11-05T02:35:30.934Z,62.40
2018-11-05T02:37:59.828Z,62.10
2018-11-05T02:40:29.028Z,61.70
2018-11-05T02:42:57.935Z,61.30
2018-11-05T02:45:27.218Z,61.30
2018-11-05T02:47:56.098Z,61.70
2018-11-05T02:50:25.727Z,62.20
2018-11-05T02:53:19.422Z,62.20
2018-11-05T02:55:49.821Z,62.40
2018-11-05T02:58:19.556Z,62.80
2018-11-05T03:00:50.194Z,63.00
2018-11-05T03:03:20.254Z,63.00
2018-11-05T03:05:49.064Z,62.60
2018-11-05T03:08:18.251Z,63.00
2018-11-05T03:10:47.132Z,63.00
2018-11-05T03:13:16.007Z,62.80
2018-11-05T03:15:44.883Z,62.40
2018-11-05T03:18:13.763Z,63.10
2018-11-05T03:20:43.628Z,63.00
2018-11-05T03:23:12.495Z,63.00
2018-11-05T03:25:42.636Z,63.30
2018-11-05T03:28:11.543Z,64.00
2018-11-05T03:30:40.911Z,64.90
2018-11-05T03:33:09.774Z,65.50
2018-11-05T03:35:38.673Z,65.30
2018-11-05T03:40:51.833Z,65.10
2018-11-05T03:43:20.706Z,65.50
2018-11-05T03:45:49.585Z,65.70
2018-11-05T03:48:18.755Z,65.80
2018-11-05T03:50:48.021Z,65.50
2018-11-05T03:53:17.226Z,65.30
2018-11-05T03:55:46.521Z,65.10
2018-11-05T03:58:15.423Z,65.50
2018-11-05T04:00:44.362Z,65.80
2018-11-05T04:03:13.426Z,65.70
2018-11-05T04:05:42.282Z,65.30
2018-11-05T04:08:11.151Z,65.10
2018-11-05T04:10:40.370Z,64.80
2018-11-05T04:13:09.579Z,64.80
2018-11-05T04:15:38.800Z,64.20
2018-11-05T04:18:07.584Z,64.40
2018-11-05T04:20:37.035Z,64.60
2018-11-05T04:23:06.230Z,64.60
2018-11-05T04:25:35.366Z,64.20
2018-11-05T04:28:04.549Z,63.70
2018-11-05T04:30:33.612Z,63.30
2018-11-05T04:33:02.781Z,63.30
2018-11-05T04:35:31.715Z,63.70
2018-11-05T04:38:00.839Z,64.00
2018-11-05T04:40:29.720Z,64.00
2018-11-05T04:42:58.826Z,64.00
2018-11-05T04:45:28.031Z,63.70
2018-11-05T04:47:57.168Z,63.70
2018-11-05T04:50:26.757Z,63.50
2018-11-05T04:52:56.576Z,63.30
2018-11-05T04:55:26.315Z,62.80
2018-11-05T04:57:56.556Z,62.40
2018-11-05T05:00:26.369Z,62.20
2018-11-05T05:02:56.100Z,61.90
2018-11-05T05:05:25.902Z,61.70
2018-11-05T05:07:56.052Z,62.10
2018-11-05T05:10:25.892Z,62.10
2018-11-05T05:12:55.622Z,62.40
2018-11-05T05:15:25.926Z,62.40
2018-11-05T05:17:56.142Z,62.60
2018-11-05T05:20:25.490Z,62.20
2018-11-05T05:22:56.369Z,61.70
2018-11-05T05:25:25.323Z,61.50
2018-11-05T05:27:55.617Z,61.70
2018-11-05T05:30:25.054Z,61.30
2018-11-05T05:32:55.625Z,61.20
2018-11-05T05:35:24.595Z,60.80
2018-11-05T05:37:53.731Z,61.00
2018-11-05T05:40:22.657Z,61.20
2018-11-05T05:42:51.529Z,61.20
2018-11-05T05:45:20.414Z,61.00
2018-11-05T05:47:50.281Z,60.60
2018-11-05T05:50:19.293Z,60.10
2018-11-05T05:52:49.251Z,60.10
2018-11-05T05:55:18.983Z,60.00
2018-11-05T05:57:48.642Z,60.10
2018-11-05T06:00:18.224Z,60.30
2018-11-05T06:02:49.045Z,60.40
2018-11-05T06:05:19.260Z,60.80
2018-11-05T06:07:48.242Z,61.00
2018-11-05T06:10:17.131Z,61.20
2018-11-05T06:12:46.119Z,61.30
2018-11-05T06:15:16.436Z,61.50
2018-11-05T06:17:45.491Z,61.20
2018-11-05T06:20:17.408Z,61.00
2018-11-05T06:22:47.107Z,61.00
2018-11-05T06:25:16.209Z,60.80
2018-11-05T06:27:45.107Z,60.30
2018-11-05T06:30:16.600Z,60.10
2018-11-05T06:32:46.746Z,60.00
2018-11-05T06:35:15.962Z,60.00
2018-11-05T06:37:45.367Z,60.10
2018-11-05T06:40:15.776Z,60.30
2018-11-05T06:42:45.278Z,60.30
2018-11-05T06:45:15.533Z,60.60
2018-11-05T06:47:45.431Z,61.30
2018-11-05T06:50:19.730Z,61.90
2018-11-05T06:52:49.250Z,62.20
2018-11-05T06:55:18.130Z,62.40
2018-11-05T06:57:47.673Z,62.10
2018-11-05T07:00:21.215Z,62.10
2018-11-05T07:02:50.095Z,62.20
2018-11-05T07:05:19.453Z,63.00
2018-11-05T07:07:48.434Z,63.10
2018-11-05T07:10:18.200Z,62.80
2018-11-05T07:12:47.175Z,62.60
2018-11-05T07:15:17.758Z,62.60
2018-11-05T07:17:47.674Z,62.60
2018-11-05T07:20:20.579Z,62.40
2018-11-05T07:22:50.676Z,62.10
2018-11-05T07:25:19.552Z,61.70
2018-11-05T07:27:49.420Z,61.20
2018-11-05T07:30:25.082Z,61.00
2018-11-05T07:32:56.081Z,61.30
2018-11-05T07:35:25.830Z,61.20
2018-11-05T07:37:55.369Z,61.30
2018-11-05T07:40:24.954Z,61.50
2018-11-05T07:42:54.280Z,62.10
2018-11-05T07:45:24.808Z,62.40
2018-11-05T07:47:54.749Z,62.20
2018-11-05T07:50:24.458Z,62.40
2018-11-05T07:52:53.882Z,62.10
2018-11-05T07:55:24.466Z,61.70
2018-11-05T07:58:00.296Z,61.30
2018-11-05T08:00:36.536Z,61.20
2018-11-05T08:09:08.994Z,60.40
2018-11-05T08:11:40.059Z,60.80
2018-11-05T08:14:10.978Z,61.00
2018-11-05T08:16:41.378Z,60.80
2018-11-05T08:19:12.540Z,61.00
2018-11-05T08:21:43.403Z,61.20
2018-11-05T08:24:14.801Z,60.60
2018-11-05T08:26:46.068Z,60.10
2018-11-05T08:29:17.008Z,60.00
2018-11-05T08:31:47.952Z,59.70
2018-11-05T08:34:18.815Z,60.10
2018-11-05T08:36:49.541Z,60.10
2018-11-05T08:39:19.892Z,59.80
2018-11-05T08:41:50.141Z,59.80
2018-11-05T08:44:20.644Z,60.00
2018-11-05T08:46:50.989Z,60.40
2018-11-05T08:49:20.853Z,60.40
2018-11-05T08:51:50.969Z,59.50
2018-11-05T08:54:21.765Z,59.40
2018-11-05T08:56:51.398Z,58.60
2018-11-05T08:59:20.787Z,58.00
2018-11-05T09:01:50.367Z,57.40
2018-11-05T09:04:20.048Z,56.90
2018-11-05T09:06:49.975Z,55.50
2018-11-05T09:09:19.704Z,54.60
2018-11-05T09:11:49.415Z,53.90
2018-11-05T09:14:19.187Z,53.90
2018-11-05T09:16:49.468Z,53.90
2018-11-05T09:19:19.229Z,53.80
2018-11-05T09:21:48.999Z,53.30
2018-11-05T09:24:18.917Z,53.30
2018-11-05T09:26:49.359Z,53.20
2018-11-05T09:29:19.090Z,52.30
2018-11-05T09:31:49.046Z,52.00
2018-11-05T09:34:18.701Z,50.80
2018-11-05T09:36:48.462Z,48.30
2018-11-05T09:39:18.369Z,47.00
2018-11-05T09:41:48.063Z,46.20
2018-11-05T09:44:18.275Z,46.40
2018-11-05T09:46:47.925Z,45.60
2018-11-05T09:49:17.782Z,45.30
2018-11-05T09:51:47.882Z,46.10
2018-11-05T09:54:17.353Z,46.50
2018-11-05T09:56:48.494Z,47.10
2018-11-05T09:59:19.185Z,46.80
2018-11-05T10:01:50.335Z,45.80
2018-11-05T10:04:21.285Z,46.20
2018-11-05T10:06:51.956Z,45.90
2018-11-05T10:09:22.095Z,45.80
2018-11-05T10:11:52.401Z,46.10
2018-11-05T10:14:22.557Z,45.90
2018-11-05T10:16:52.658Z,45.30
2018-11-05T10:19:22.928Z,45.30
2018-11-05T10:21:53.615Z,44.90
2018-11-05T10:24:23.509Z,44.30
2018-11-05T10:26:53.729Z,44.30
2018-11-05T10:29:23.749Z,43.70
2018-11-05T10:31:53.720Z,43.90
2018-11-05T10:34:24.010Z,42.40
2018-11-05T10:36:54.256Z,42.40
2018-11-05T10:39:24.581Z,42.20
2018-11-05T10:41:54.829Z,41.30
2018-11-05T10:44:24.951Z,41.00
2018-11-05T10:46:54.883Z,41.00
2018-11-05T10:49:24.946Z,41.00
2018-11-05T10:51:55.249Z,41.00
2018-11-05T10:54:28.485Z,40.50
2018-11-05T10:56:58.763Z,38.70
2018-11-05T10:59:30.373Z,39.40
2018-11-05T11:02:06.196Z,39.60
2018-11-05T11:04:36.575Z,40.00
2018-11-05T11:07:06.494Z,40.00
2018-11-05T11:09:36.601Z,40.90
2018-11-05T11:12:06.786Z,41.20
2018-11-05T11:14:37.097Z,41.90
2018-11-05T11:17:07.178Z,42.40
2018-11-05T11:19:37.675Z,42.70
2018-11-05T11:22:07.795Z,43.40
2018-11-05T11:24:37.095Z,44.10
2018-11-05T11:27:07.247Z,44.90
2018-11-05T11:29:37.992Z,45.50
2018-11-05T11:32:08.391Z,45.90
2018-11-05T11:34:38.987Z,46.50
2018-11-05T11:37:09.389Z,46.50
2018-11-05T11:39:39.558Z,47.00
2018-11-05T11:42:09.954Z,47.30
2018-11-05T11:44:39.907Z,47.10
2018-11-05T11:47:10.109Z,47.40
2018-11-05T11:49:40.302Z,47.80
2018-11-05T11:54:46.060Z,47.70
2018-11-05T11:57:15.655Z,47.70
2018-11-05T11:59:45.811Z,47.30
2018-11-05T12:02:21.206Z,46.70
2018-11-05T12:04:50.729Z,46.50
2018-11-05T12:07:20.453Z,46.50
2018-11-05T12:09:49.985Z,46.50
2018-11-05T12:12:19.594Z,46.10
2018-11-05T12:14:49.273Z,45.50
2018-11-05T12:17:18.598Z,45.50
2018-11-05T12:19:48.205Z,45.60
2018-11-05T12:22:17.802Z,45.50
2018-11-05T12:24:48.046Z,45.80
2018-11-05T12:27:17.592Z,45.30
2018-11-05T12:29:47.129Z,44.90
2018-11-05T12:32:16.832Z,43.90
2018-11-05T12:34:46.381Z,43.40
2018-11-05T12:37:17.061Z,42.20
2018-11-05T12:39:47.118Z,42.10
2018-11-05T12:42:21.411Z,41.80
2018-11-05T12:44:55.140Z,41.00
2018-11-05T12:47:26.250Z,41.00
2018-11-05T12:49:55.639Z,40.90
2018-11-05T12:52:25.405Z,40.90
2018-11-05T12:54:59.510Z,40.70
2018-11-05T12:57:30.129Z,40.50
2018-11-05T13:00:01.670Z,40.60
2018-11-05T13:02:31.788Z,40.60
2018-11-05T13:05:02.671Z,40.50
2018-11-05T13:07:32.514Z,40.70
2018-11-05T13:10:02.116Z,40.70
2018-11-05T13:12:31.724Z,41.50
2018-11-05T13:15:01.400Z,41.60
2018-11-05T13:17:31.029Z,41.80
2018-11-05T13:20:01.189Z,41.80
2018-11-05T13:22:31.556Z,41.90
2018-11-05T13:25:05.736Z,41.60
2018-11-05T13:27:40.890Z,41.80
2018-11-05T13:30:13.739Z,42.10
2018-11-05T13:32:48.903Z,42.40
2018-11-05T13:35:22.478Z,42.80
2018-11-05T13:37:53.122Z,42.50
2018-11-05T13:40:29.625Z,43.00
2018-11-05T13:43:01.335Z,42.70
2018-11-05T13:45:32.406Z,42.70
2018-11-05T13:48:02.808Z,43.00
2018-11-05T13:50:36.720Z,43.00
2018-11-05T13:53:08.976Z,42.50
2018-11-05T13:55:39.978Z,42.10
2018-11-05T13:58:11.180Z,42.20
2018-11-05T14:00:41.953Z,42.40
2018-11-05T14:03:13.165Z,43.00
2018-11-05T14:05:43.477Z,43.10
2018-11-05T14:08:14.647Z,42.80
2018-11-05T14:10:49.658Z,42.80
2018-11-05T14:13:19.184Z,43.10
2018-11-05T14:15:48.345Z,43.30
2018-11-05T14:18:17.680Z,43.70
2018-11-05T14:20:46.851Z,44.10
2018-11-05T14:23:15.936Z,44.40
2018-11-05T14:25:45.126Z,44.60
2018-11-05T14:28:14.368Z,44.60
2018-11-05T14:30:43.999Z,44.90
2018-11-05T14:33:13.557Z,44.70
2018-11-05T14:35:42.538Z,44.90
2018-11-05T14:38:11.651Z,45.20
2018-11-05T14:40:41.053Z,45.50
2018-11-05T14:43:10.429Z,45.80
2018-11-05T14:45:39.405Z,45.80
2018-11-05T14:48:08.389Z,45.90
2018-11-05T14:50:37.801Z,46.10
2018-11-05T14:53:06.713Z,46.20
2018-11-05T14:55:35.953Z,46.50
2018-11-05T14:58:05.412Z,46.70
2018-11-05T15:00:35.300Z,47.00
2018-11-05T15:03:04.274Z,47.10
2018-11-05T15:05:33.376Z,47.10
2018-11-05T15:08:02.527Z,47.40
2018-11-05T15:10:31.431Z,48.00
2018-11-05T15:13:00.394Z,48.10
2018-11-05T15:15:29.334Z,48.30
2018-11-05T15:17:58.549Z,48.40
2018-11-05T15:20:27.730Z,48.40
2018-11-05T15:22:56.904Z,48.70
2018-11-05T15:25:26.129Z,48.70
2018-11-05T15:27:55.310Z,49.00
2018-11-05T15:30:24.205Z,49.20
2018-11-05T15:32:53.171Z,49.20
2018-11-05T15:35:22.371Z,49.30
2018-11-05T15:37:51.294Z,49.30
2018-11-05T15:40:21.283Z,49.80
2018-11-05T15:42:50.786Z,49.90
2018-11-05T15:45:20.891Z,49.90
2018-11-05T15:47:50.110Z,50.10
2018-11-05T15:50:20.251Z,50.20
2018-11-05T15:52:50.093Z,50.20
2018-11-05T15:55:18.723Z,50.40
2018-11-05T15:57:47.639Z,50.80
2018-11-05T16:00:21.203Z,51.10
2018-11-05T16:02:58.949Z,51.20
2018-11-05T16:05:28.308Z,51.50
2018-11-05T16:07:57.499Z,51.80
2018-11-05T16:10:26.400Z,52.00
2018-11-05T16:12:56.806Z,52.10
2018-11-05T16:15:25.909Z,52.60
2018-11-05T16:17:54.792Z,52.90
2018-11-05T16:20:26.001Z,53.20
2018-11-05T16:22:55.881Z,53.30
2018-11-05T16:25:24.815Z,53.60
2018-11-05T16:27:54.950Z,53.90
2018-11-05T16:30:25.985Z,54.10
2018-11-05T16:32:55.137Z,54.30
2018-11-05T16:35:24.137Z,54.60
2018-11-05T16:37:53.394Z,54.80
2018-11-05T16:40:22.390Z,54.80
2018-11-05T16:42:52.011Z,54.90
2018-11-05T16:45:22.153Z,55.40
2018-11-05T16:47:51.374Z,55.50
2018-11-05T16:50:25.375Z,56.10
2018-11-05T16:52:55.034Z,56.70
2018-11-05T16:55:24.256Z,57.00
2018-11-05T16:57:53.467Z,57.20
2018-11-05T17:00:23.019Z,57.30
2018-11-05T17:02:52.189Z,57.40
2018-11-05T17:05:21.300Z,57.20
2018-11-05T17:07:52.143Z,57.20
2018-11-05T17:10:21.313Z,56.90
2018-11-05T17:12:53.131Z,56.90
2018-11-05T17:15:22.470Z,57.20
2018-11-05T17:17:51.501Z,57.40
2018-11-05T17:20:21.447Z,57.40
2018-11-05T17:22:50.957Z,57.40
2018-11-05T17:25:23.722Z,57.60
2018-11-05T17:27:53.464Z,57.70
2018-11-05T17:30:23.047Z,58.30
2018-11-05T17:32:52.473Z,58.60
2018-11-05T17:35:21.675Z,58.50
2018-11-05T17:37:50.800Z,58.50
2018-11-05T17:40:21.311Z,58.50
2018-11-05T17:42:50.468Z,58.50
2018-11-05T17:45:20.690Z,58.20
2018-11-05T17:47:49.980Z,58.20
2018-11-05T17:50:20.653Z,58.00
2018-11-05T17:52:50.112Z,58.50
2018-11-05T17:55:19.099Z,58.60
2018-11-05T17:57:48.750Z,59.10
2018-11-05T18:00:20.843Z,59.10
2018-11-05T18:02:50.051Z,59.10
2018-11-05T18:05:19.395Z,58.80
2018-11-05T18:07:50.015Z,58.80
2018-11-05T18:10:19.148Z,58.50
2018-11-05T18:12:48.404Z,58.30
2018-11-05T18:15:17.505Z,58.20
2018-11-05T18:17:47.426Z,58.00
2018-11-05T18:20:17.891Z,58.20
2018-11-05T18:22:47.045Z,58.50
2018-11-05T18:25:17.290Z,58.60
2018-11-05T18:27:46.776Z,58.60
2018-11-05T18:30:16.535Z,58.90
2018-11-05T18:32:45.603Z,58.80
2018-11-05T18:35:15.663Z,58.80
2018-11-05T18:37:46.211Z,58.60
2018-11-05T18:40:16.315Z,58.50
2018-11-05T18:42:45.461Z,58.20
2018-11-05T18:45:14.798Z,58.00
2018-11-05T18:47:44.522Z,58.00
2018-11-05T18:50:14.879Z,57.90
2018-11-05T18:52:44.209Z,57.90
2018-11-05T18:55:15.072Z,57.90
2018-11-05T18:57:44.551Z,57.90
2018-11-05T19:00:18.935Z,57.70
2018-11-05T19:02:48.551Z,57.70
2018-11-05T19:05:17.837Z,57.60
2018-11-05T19:07:47.511Z,57.60
2018-11-05T19:10:16.534Z,57.60
2018-11-05T19:12:45.920Z,57.60
2018-11-05T19:15:15.456Z,57.30
2018-11-05T19:17:45.773Z,57.00
2018-11-05T19:20:15.615Z,56.90
2018-11-05T19:22:45.054Z,56.70
2018-11-05T19:25:14.810Z,56.90
2018-11-05T19:27:43.885Z,56.90
2018-11-05T19:30:16.780Z,57.00
2018-11-05T19:32:46.293Z,56.90
2018-11-05T19:35:16.188Z,56.90
2018-11-05T19:37:45.207Z,57.00
2018-11-05T19:40:15.246Z,57.20
2018-11-05T19:42:45.481Z,57.20
2018-11-05T19:45:19.847Z,56.90
2018-11-05T19:47:49.251Z,56.70
2018-11-05T19:50:20.012Z,56.60
2018-11-05T19:52:50.362Z,56.70
2018-11-05T19:55:20.414Z,56.70
2018-11-05T19:57:51.779Z,56.60
2018-11-05T20:00:25.825Z,56.40
2018-11-05T20:02:55.630Z,56.40
2018-11-05T20:05:24.997Z,56.30
2018-11-05T20:07:54.921Z,56.10
2018-11-05T20:10:23.945Z,56.00
2018-11-05T20:12:53.260Z,55.70
2018-11-05T20:15:23.611Z,55.40
2018-11-05T20:17:53.601Z,55.50
2018-11-05T20:20:23.583Z,56.00
2018-11-05T20:22:52.690Z,55.70
2018-11-05T20:25:21.786Z,55.70
2018-11-05T20:27:50.741Z,55.50
2018-11-05T20:30:22.203Z,55.50
2018-11-05T20:32:53.424Z,55.50
2018-11-05T20:35:22.688Z,55.50
2018-11-05T20:37:52.369Z,55.10
2018-11-05T20:40:22.413Z,55.10
2018-11-05T20:42:54.453Z,55.10
2018-11-05T20:45:28.081Z,54.80
2018-11-05T20:48:00.988Z,55.10
2018-11-05T20:50:37.499Z,54.60
2018-11-05T20:53:19.287Z,54.20
2018-11-05T20:56:05.912Z,54.30
2018-11-05T20:58:48.125Z,54.10
2018-11-05T21:01:23.502Z,54.10
2018-11-05T21:03:59.176Z,53.80
2018-11-05T21:06:38.030Z,53.80
2018-11-05T21:09:13.871Z,53.90
2018-11-05T21:11:49.888Z,54.10
2018-11-05T21:14:22.247Z,54.30
2018-11-05T21:16:59.229Z,54.10
2018-11-05T21:19:32.990Z,54.50
2018-11-05T21:22:04.173Z,57.40
2018-11-05T21:24:38.264Z,56.60
2018-11-05T21:27:10.891Z,57.20
2018-11-05T21:29:44.496Z,57.20
2018-11-05T21:32:17.563Z,55.70
2018-11-05T21:34:50.232Z,55.50
2018-11-05T21:37:23.694Z,55.10
2018-11-05T21:39:56.710Z,56.30
2018-11-05T21:42:28.913Z,57.60
2018-11-05T21:45:03.424Z,56.90
2018-11-05T21:47:34.006Z,58.20
2018-11-05T21:50:06.813Z,59.80
2018-11-05T21:52:40.368Z,59.80
2018-11-05T21:55:11.006Z,61.00
2018-11-05T21:57:44.947Z,60.60
2018-11-05T22:00:20.288Z,60.80
2018-11-05T22:03:04.139Z,60.80
2018-11-05T22:05:40.596Z,61.50
2018-11-05T22:08:36.864Z,60.60
2018-11-05T22:11:07.498Z,61.00
2018-11-05T22:13:38.525Z,61.50
2018-11-05T22:16:26.979Z,61.30
2018-11-05T22:19:00.764Z,62.40
2018-11-05T22:25:15.742Z,60.10
2018-11-05T22:27:46.162Z,58.30
2018-11-05T22:30:16.973Z,57.60
2018-11-05T22:32:48.422Z,56.60
2018-11-05T22:35:19.192Z,56.00
2018-11-05T22:37:51.181Z,54.60
2018-11-05T22:40:21.648Z,54.20
2018-11-05T22:42:54.383Z,53.90
2018-11-05T22:45:26.662Z,53.60
2018-11-05T22:47:59.636Z,52.70
2018-11-05T22:50:32.538Z,52.30
2018-11-05T22:53:03.548Z,52.30
2018-11-05T22:55:34.159Z,51.80
2018-11-05T22:58:08.249Z,51.70
2018-11-05T23:00:45.752Z,51.50
2018-11-05T23:03:28.310Z,51.20
2018-11-05T23:06:02.025Z,50.80
2018-11-05T23:08:33.228Z,50.20
2018-11-05T23:11:07.203Z,50.70
2018-11-05T23:22:35.411Z,50.40
2018-11-05T23:28:02.075Z,50.40
2018-11-05T23:30:33.807Z,49.80
2018-11-05T23:33:06.136Z,49.90
2018-11-05T23:35:37.724Z,49.90
2018-11-05T23:38:12.320Z,49.80
2018-11-05T23:40:42.867Z,50.10
2018-11-05T23:49:48.359Z,50.20
2018-11-05T23:52:19.023Z,50.40
2018-11-05T23:54:49.507Z,50.70
2018-11-05T23:57:20.407Z,50.10
2018-11-05T23:59:51.698Z,50.10
